AirNav   Everest Fuels
 
 1652 users online  

OK94 Sandridge Airpark Inc
Collinsville, Oklahoma, USA

GOING TO COLLINSVILLE?


FAA INFORMATION EFFECTIVE 30 DECEMBER 2021

Location

FAA Identifier: OK94
Lat/Long: 36-21-16.4750N 095-48-11.6000W
36-21.274583N 095-48.193333W
36.3545764,-95.8032222
(estimated)
Elevation: 690 ft. / 210 m (estimated)
Variation: 06E (1985)
From city: 2 miles SE of COLLINSVILLE, OK
Time zone: UTC -6 (UTC -5 during Daylight Saving Time)
Zip code: 74021

Airport Operations

Airport use: Private use. Permission required prior to landing
Activation date: 05/1972
Control tower: no
ARTCC: KANSAS CITY CENTER
FSS: MC ALESTER FLIGHT SERVICE STATION
Attendance: UNATNDD
Wind indicator: yes
Segmented circle: no
Lights: ACTVT LIRL RY 17/35 - 122.7.

Airport Communications

WX ASOS at TUL (10 nm SW): PHONE 918-831-6772
WX AWOS-3P at GCM (16 nm E): 119.925 (918-343-0184)

Nearby radio navigation aids

VOR radial/distance  VOR name  Freq  Var
TULr348/9.5TULSA VORTAC114.4008E
BVOr152/30.6BARTLESVILLE VOR/DME117.9008E
OKMr356/39.8OKMULGEE VOR/DME114.9008E

Airport Services

Fuel available: MOGAS
MOGAS:NO ETHANOL.
Airframe service: NONE
Powerplant service: NONE

Runway Information

Runway 17/35

Dimensions: 2545 x 110 ft. / 776 x 34 m
Surface: turf
Runway edge lights: low intensity
RUNWAY 17  RUNWAY 35
Latitude: 36-21.484167N36-21.065000N
Longitude: 095-48.193333W095-48.193333W
Elevation: 680.0 ft.690.0 ft.
Traffic pattern: leftleft
Displaced threshold: 580 ft.305 ft.
Obstructions: pline, marked, 300 ft. from runwaynone

Airport Ownership and Management from official FAA records

Ownership: Privately-owned
Owner: SANDRIDGE AIRPARK INC
13869 N. 152 EAST
COLLINSVILLE, OK 74021
Manager: RUSTY LOUDENSLAGER
13869 N. 152ND E. AVE.
COLLINSVILLE, OK 74021
Phone 918-633-5607

Airport Operational Statistics

Aircraft based on the field: 40
Single engine airplanes: 39
Ultralights: 1
    

Additional Remarks

FOR CD CTC TULSA APCH AT 918-831-6714/6720.

Instrument Procedures

There are no published instrument procedures at OK94.

Some nearby airports with instrument procedures:

KTUL - Tulsa International Airport (10 nm SW)
KGCM - Claremore Regional Airport (16 nm E)
KOWP - William R Pogue Municipal Airport (20 nm SW)
KRVS - Tulsa Riverside Airport (21 nm SW)
H71 - Mid-America Industrial Airport (24 nm E)
 
Loc | Ops | Rwys | IFR | FBO | Links
Com | Nav | Svcs | Stats | Notes
Area around OK94 (Sandridge Airpark Inc)
 
Road maps at: MapQuest Bing Google
 
Aerial photo
WARNING: Photo may not be current or correct
Aerial photo of OK94 (Sandridge Airpark Inc)
Do you have a better or more recent aerial photo of Sandridge Airpark Inc that you would like to share? If so, please send us your photo.

 
Sectional chart

 
Airport distance calculator
Flying to Sandridge Airpark Inc? Find the distance to fly.

From to OK94

Sunrise and sunset
Times for 20-Jan-2022
 Local
(UTC-6)
 Zulu
(UTC)
Morning civil twilight07:0513:05
Sunrise07:3313:33
Sunset17:3623:36
Evening civil twilight18:0300:03

Current date and time
Zulu (UTC)  20-Jan-2022 23:17:02
Local (UTC-6)  20-Jan-2022 17:17:02
 
METAR
KTUL 
10nm SW 
202253Z 36009G17KT 10SM SCT200 M04/M18 A3055 RMK AO2 SLP354 T10441178 $
KGCM 
16nm E 
202255Z AUTO 01005KT 10SM CLR M05/M20 A3056 RMK AO2
KOWP 
20nm SW 
202255Z AUTO 04007KT 10SM CLR M02/M18 A3054 RMK AO2 T10251185 PWINO
TAF
KTUL 
10nm SW 
201120Z 2012/2112 01013G21KT P6SM BKN110 FM210000 03006KT P6SM SKC
NOTAMs
Click for the latest NOTAMs
NOTAMs are issued by the DoD/FAA and will open in a separate window not controlled by AirNav.

 

 
 

Would you like to see your business listed on this page?

 If your business provides an interesting product or service to pilots, flight crews, aircraft, or users of the Sandridge Airpark Inc, you should consider listing it here.  To start the listing process, click on the button below
 
Add a business
 

Other Pages about Sandridge Airpark Inc

Update a link
 
Copyright © AirNav, LLC. All rights reserved. Privacy Policy  Contact